Frenchville, ME

12:29 AM EDT on August 05, 2015 (GMT -0400)
K1FTK | | Change Station
CLOSE
Current Station
Personal Weather Station
Location: Saint Agatha, ME
Elevation: 825 ft
Nearby Weather Stations

Elev 825 ft 47.25 °N, 68.35 °W | Updated 8 minutes ago

Scattered Clouds
Scattered Clouds
62.3 °F
Feels Like 62.3 °F
N
0.0
Wind Variable Wind from WSW
Gusts 0.0 mph

Today
High -- | Low -- °F
--% Chance of Precip.
Yesterday
High -- | Low -- °F
Precip. -- in
5:16 AM 8:01 PM
Waning Gibbous, 71% visible
Pressure 29.75 in
Visibility 10.0 miles
Clouds Scattered Clouds 10000 ft
Dew Point 57 °F
Humidity 84%
Rainfall 0.00 in
Snow Depth Not available.
UV 0 out of 12
Pollen 4.20 out of 12
Air Quality Not available.
Flu Activity Not available.
METAR KFVE 050353Z AUTO 26007KT 10SM SCT100 16/14 A2976 RMK AO2 SLP072 T01610139

More Conditions Fewer Conditions

Pressure 29.75 in
Visibility 10.0 miles
Clouds Scattered Clouds 10000 ft
Dew Point 57 °F
Humidity 84%
Rainfall 0.00 in
Snow Depth Not available.
UV 0 out of 12
Pollen 4.20 out of 12
Air Quality Not available.
Flu Activity Not available.
METAR KFVE 050353Z AUTO 26007KT 10SM SCT100 16/14 A2976 RMK AO2 SLP072 T01610139

More Conditions Fewer Conditions

10-Day Weather Forecast

×

Almanac

Astronomy

Aug. 05, 2015 Rise Set
Actual Time
Civil Twilight
Nautical Twilight
Astronomical Twilight
Moon
Length of Visible Light
Length of Day
Tomorrow will be .
, % of the Moon is Illuminated

Today's Extremes

State Highs State Lows

Community

WunderPhotos

Upload Photos

1,844,093 photos uploaded!

WunderBlogs® & News

Nearby

Air Quality

  Air Quality AQ Index Pollutant
Not available.

Snow Depth

Station Depth Elevation

Earthquake Activity

City Distance Mag. Time & Date
Minimum magnitude displayed is 2.5.

Coastal Water Temperatures

Place Temperature

Stations

Nearby Weather Stations

Station Location Temp. Windchill Dew Point Humidity Wind Precip. Elev Updated Type